New Baltimore, Virginia
Current Conditions -  °F | °C
As of 8:55 AM on Tuesday 27 Jan 2015 (Local Time) from KHEF Reporting Station
Overcast Overcast  
Wind Chill: 21°   Ceiling: 4500
Heat Index: 30°   Visibility: 10mi
Dew Point: 27°   Wind: 10mph
Humidity: 86%   Direction: 350°N
Pressure: 29.83"   Gusts: 21mph
Location:  38.754°N, 77.7224°W
Report Text: KHEF 271355Z 35009G18KT 10SM FEW021 OVC045 M01/M03 A2983 RMK RWY 34L/R ACTIVE 1/4 IN. DRY SN OVER PATCHY ICE ALL SURFACES 34R MU 34/35/29 34L MU 28/25/27
Loading
Personal Weather Stations






























Interactive Weather Map New forecast layout! Learn more

10-Day Weather Forecast

Advertisements
Track Severe Weather on mobile